sensor_id;sensor_type;location;lat;lon;timestamp;temperature;humidity
843;DHT22;407;48.884;9.126;2023-04-15T00:01:29;6.30;99.90
843;DHT22;407;48.884;9.126;2023-04-15T00:03:58;5.70;99.90
843;DHT22;407;48.884;9.126;2023-04-15T00:06:23;5.90;99.90
843;DHT22;407;48.884;9.126;2023-04-15T00:08:49;5.90;99.90
843;DHT22;407;48.884;9.126;2023-04-15T00:11:15;7.90;85.80
843;DHT22;407;48.884;9.126;2023-04-15T00:13:41;6.20;1.00
843;DHT22;407;48.884;9.126;2023-04-15T00:16:08;6.10;1.00
843;DHT22;407;48.884;9.126;2023-04-15T00:18:34;6.10;1.00
843;DHT22;407;48.884;9.126;2023-04-15T00:21:00;6.00;1.00
843;DHT22;407;48.884;9.126;2023-04-15T00:23:26;5.90;1.00
843;DHT22;407;48.884;9.126;2023-04-15T00:25:52;5.90;1.00
843;DHT22;407;48.884;9.126;2023-04-15T00:28:17;5.80;64.80
843;DHT22;407;48.884;9.126;2023-04-15T00:30:43;7.40;99.90
843;DHT22;407;48.884;9.126;2023-04-15T00:33:09;7.20;99.90
843;DHT22;407;48.884;9.126;2023-04-15T00:35:35;5.80;99.90
843;DHT22;407;48.884;9.126;2023-04-15T00:38:02;7.10;99.90
843;DHT22;407;48.884;9.126;2023-04-15T00:40:28;5.70;99.90
843;DHT22;407;48.884;9.126;2023-04-15T00:42:53;5.60;99.90
843;DHT22;407;48.884;9.126;2023-04-15T00:45:19;5.50;1.00
843;DHT22;407;48.884;9.126;2023-04-15T00:47:45;5.40;1.00
843;DHT22;407;48.884;9.126;2023-04-15T00:50:11;7.20;1.00
843;DHT22;407;48.884;9.126;2023-04-15T00:52:37;5.60;99.90
843;DHT22;407;48.884;9.126;2023-04-15T00:55:04;5.50;99.90
843;DHT22;407;48.884;9.126;2023-04-15T00:57:30;5.40;99.90
843;DHT22;407;48.884;9.126;2023-04-15T00:59:56;5.30;99.90
843;DHT22;407;48.884;9.126;2023-04-15T01:02:22;5.20;99.90
843;DHT22;407;48.884;9.126;2023-04-15T01:04:49;6.10;1.00
843;DHT22;407;48.884;9.126;2023-04-15T01:07:14;5.20;1.00
843;DHT22;407;48.884;9.126;2023-04-15T01:09:40;5.70;8.30
843;DHT22;407;48.884;9.126;2023-04-15T01:12:07;5.10;99.90
843;DHT22;407;48.884;9.126;2023-04-15T01:14:34;5.50;28.20
843;DHT22;407;48.884;9.126;2023-04-15T01:17:00;5.90;89.00
843;DHT22;407;48.884;9.126;2023-04-15T01:19:26;4.90;55.10
843;DHT22;407;48.884;9.126;2023-04-15T01:21:53;5.80;99.90
843;DHT22;407;48.884;9.126;2023-04-15T01:24:18;5.40;99.90
843;DHT22;407;48.884;9.126;2023-04-15T01:26:44;6.80;99.90
843;DHT22;407;48.884;9.126;2023-04-15T01:29:11;5.20;1.00
843;DHT22;407;48.884;9.126;2023-04-15T01:31:36;7.10;1.00
843;DHT22;407;48.884;9.126;2023-04-15T01:34:03;5.00;30.00
843;DHT22;407;48.884;9.126;2023-04-15T01:36:29;5.10;1.00
843;DHT22;407;48.884;9.126;2023-04-15T01:38:55;5.00;1.00
843;DHT22;407;48.884;9.126;2023-04-15T01:41:25;6.20;1.00
843;DHT22;407;48.884;9.126;2023-04-15T01:43:51;4.90;1.00
843;DHT22;407;48.884;9.126;2023-04-15T01:46:17;6.20;1.00
843;DHT22;407;48.884;9.126;2023-04-15T01:48:43;6.30;57.10
843;DHT22;407;48.884;9.126;2023-04-15T01:51:08;5.90;99.90
843;DHT22;407;48.884;9.126;2023-04-15T01:53:34;6.80;99.90
843;DHT22;407;48.884;9.126;2023-04-15T01:56:00;6.80;99.90
843;DHT22;407;48.884;9.126;2023-04-15T01:58:25;6.80;1.00
843;DHT22;407;48.884;9.126;2023-04-15T02:00:51;5.20;99.90
843;DHT22;407;48.884;9.126;2023-04-15T02:03:17;5.10;99.90
843;DHT22;407;48.884;9.126;2023-04-15T02:05:42;6.20;1.00
843;DHT22;407;48.884;9.126;2023-04-15T02:08:08;5.90;1.00
843;DHT22;407;48.884;9.126;2023-04-15T02:10:33;4.50;99.90
843;DHT22;407;48.884;9.126;2023-04-15T02:12:59;6.40;99.90
843;DHT22;407;48.884;9.126;2023-04-15T02:15:25;4.50;1.00
843;DHT22;407;48.884;9.126;2023-04-15T02:17:51;4.50;1.00
843;DHT22;407;48.884;9.126;2023-04-15T02:20:18;5.10;1.00
843;DHT22;407;48.884;9.126;2023-04-15T02:22:44;5.60;1.00
843;DHT22;407;48.884;9.126;2023-04-15T02:25:09;4.40;6.50
843;DHT22;407;48.884;9.126;2023-04-15T02:27:36;6.20;99.90
843;DHT22;407;48.884;9.126;2023-04-15T02:30:02;4.50;1.00
843;DHT22;407;48.884;9.126;2023-04-15T02:32:27;4.50;99.90
843;DHT22;407;48.884;9.126;2023-04-15T02:34:53;4.50;48.40
843;DHT22;407;48.884;9.126;2023-04-15T02:37:19;4.60;1.00
843;DHT22;407;48.884;9.126;2023-04-15T02:39:45;5.20;1.00
843;DHT22;407;48.884;9.126;2023-04-15T02:42:11;5.90;99.90
843;DHT22;407;48.884;9.126;2023-04-15T02:44:37;4.40;99.90
843;DHT22;407;48.884;9.126;2023-04-15T02:47:04;5.30;99.90
843;DHT22;407;48.884;9.126;2023-04-15T02:49:31;4.30;99.90
843;DHT22;407;48.884;9.126;2023-04-15T02:51:57;5.00;1.00
843;DHT22;407;48.884;9.126;2023-04-15T02:54:25;4.20;1.00
843;DHT22;407;48.884;9.126;2023-04-15T02:56:53;4.20;1.00
843;DHT22;407;48.884;9.126;2023-04-15T02:59:20;4.20;1.00
843;DHT22;407;48.884;9.126;2023-04-15T03:01:46;4.30;37.90
843;DHT22;407;48.884;9.126;2023-04-15T03:04:12;4.60;1.00
843;DHT22;407;48.884;9.126;2023-04-15T03:06:38;4.40;99.90
843;DHT22;407;48.884;9.126;2023-04-15T03:09:04;4.40;2.30
843;DHT22;407;48.884;9.126;2023-04-15T03:11:30;4.50;99.90
843;DHT22;407;48.884;9.126;2023-04-15T03:13:57;4.60;99.90
843;DHT22;407;48.884;9.126;2023-04-15T03:16:23;4.40;99.90
843;DHT22;407;48.884;9.126;2023-04-15T03:18:49;4.30;1.00
843;DHT22;407;48.884;9.126;2023-04-15T03:21:15;4.30;1.00
843;DHT22;407;48.884;9.126;2023-04-15T03:23:40;4.30;1.00
843;DHT22;407;48.884;9.126;2023-04-15T03:26:06;4.20;99.90
843;DHT22;407;48.884;9.126;2023-04-15T03:28:32;4.10;99.90
843;DHT22;407;48.884;9.126;2023-04-15T03:30:58;4.10;1.00
843;DHT22;407;48.884;9.126;2023-04-15T03:33:24;4.10;1.00
843;DHT22;407;48.884;9.126;2023-04-15T03:35:51;4.00;1.00
843;DHT22;407;48.884;9.126;2023-04-15T03:38:17;3.90;99.90
843;DHT22;407;48.884;9.126;2023-04-15T03:40:44;3.90;1.00
843;DHT22;407;48.884;9.126;2023-04-15T03:43:10;3.90;1.00
843;DHT22;407;48.884;9.126;2023-04-15T03:45:36;4.00;99.90
843;DHT22;407;48.884;9.126;2023-04-15T03:48:02;3.90;1.00
843;DHT22;407;48.884;9.126;2023-04-15T03:50:28;3.90;1.00
843;DHT22;407;48.884;9.126;2023-04-15T03:52:53;4.50;1.00
843;DHT22;407;48.884;9.126;2023-04-15T03:55:19;4.10;1.00
843;DHT22;407;48.884;9.126;2023-04-15T03:57:45;4.20;1.00
843;DHT22;407;48.884;9.126;2023-04-15T04:00:11;4.20;1.00
843;DHT22;407;48.884;9.126;2023-04-15T04:02:37;4.20;1.00
843;DHT22;407;48.884;9.126;2023-04-15T04:05:03;4.20;1.00
843;DHT22;407;48.884;9.126;2023-04-15T04:07:29;4.20;1.00
843;DHT22;407;48.884;9.126;2023-04-15T04:09:56;4.40;1.00
843;DHT22;407;48.884;9.126;2023-04-15T04:12:22;4.10;1.00
843;DHT22;407;48.884;9.126;2023-04-15T04:14:48;4.10;99.90
843;DHT22;407;48.884;9.126;2023-04-15T04:17:13;4.10;77.50
843;DHT22;407;48.884;9.126;2023-04-15T04:19:39;5.20;99.90
843;DHT22;407;48.884;9.126;2023-04-15T04:22:04;6.00;99.90
843;DHT22;407;48.884;9.126;2023-04-15T04:24:30;4.10;1.00
843;DHT22;407;48.884;9.126;2023-04-15T04:26:56;4.10;1.00
843;DHT22;407;48.884;9.126;2023-04-15T04:29:23;4.90;1.00
843;DHT22;407;48.884;9.126;2023-04-15T04:31:48;3.90;1.50
843;DHT22;407;48.884;9.126;2023-04-15T04:34:15;3.90;53.70
843;DHT22;407;48.884;9.126;2023-04-15T04:36:40;3.90;38.80
843;DHT22;407;48.884;9.126;2023-04-15T04:39:06;3.80;1.00
843;DHT22;407;48.884;9.126;2023-04-15T04:41:32;5.50;99.90
843;DHT22;407;48.884;9.126;2023-04-15T04:43:57;5.00;99.90
843;DHT22;407;48.884;9.126;2023-04-15T04:46:23;3.90;99.90
843;DHT22;407;48.884;9.126;2023-04-15T04:48:49;3.90;89.80
843;DHT22;407;48.884;9.126;2023-04-15T04:51:14;4.10;19.90
843;DHT22;407;48.884;9.126;2023-04-15T04:53:40;4.20;1.00
843;DHT22;407;48.884;9.126;2023-04-15T04:56:07;6.10;99.90
843;DHT22;407;48.884;9.126;2023-04-15T04:58:33;4.20;99.90
843;DHT22;407;48.884;9.126;2023-04-15T05:00:58;4.20;99.90
843;DHT22;407;48.884;9.126;2023-04-15T05:03:24;4.20;1.00
843;DHT22;407;48.884;9.126;2023-04-15T05:05:50;4.10;99.90
843;DHT22;407;48.884;9.126;2023-04-15T05:08:15;4.00;1.00
843;DHT22;407;48.884;9.126;2023-04-15T05:10:41;4.00;39.50
843;DHT22;407;48.884;9.126;2023-04-15T05:13:07;4.00;99.90
843;DHT22;407;48.884;9.126;2023-04-15T05:15:32;5.70;1.00
843;DHT22;407;48.884;9.126;2023-04-15T05:18:01;4.20;1.00
843;DHT22;407;48.884;9.126;2023-04-15T05:20:26;4.40;1.00
843;DHT22;407;48.884;9.126;2023-04-15T05:22:52;4.50;99.90
843;DHT22;407;48.884;9.126;2023-04-15T05:25:19;4.50;1.00
843;DHT22;407;48.884;9.126;2023-04-15T05:27:44;4.60;1.00
843;DHT22;407;48.884;9.126;2023-04-15T05:30:10;4.70;1.00
843;DHT22;407;48.884;9.126;2023-04-15T05:32:36;4.90;99.90
843;DHT22;407;48.884;9.126;2023-04-15T05:35:03;5.00;99.90
843;DHT22;407;48.884;9.126;2023-04-15T05:37:29;5.30;99.90
843;DHT22;407;48.884;9.126;2023-04-15T05:39:55;6.50;99.90
843;DHT22;407;48.884;9.126;2023-04-15T05:42:21;6.60;1.00
843;DHT22;407;48.884;9.126;2023-04-15T05:44:46;6.80;99.90
843;DHT22;407;48.884;9.126;2023-04-15T05:47:13;7.80;1.00
843;DHT22;407;48.884;9.126;2023-04-15T05:49:38;8.90;1.00
843;DHT22;407;48.884;9.126;2023-04-15T05:52:04;8.70;99.90
843;DHT22;407;48.884;9.126;2023-04-15T05:54:30;9.30;1.00
843;DHT22;407;48.884;9.126;2023-04-15T05:56:56;9.90;1.00
843;DHT22;407;48.884;9.126;2023-04-15T05:59:22;10.90;1.00
843;DHT22;407;48.884;9.126;2023-04-15T06:01:48;11.50;1.00
843;DHT22;407;48.884;9.126;2023-04-15T06:04:14;12.20;99.90
843;DHT22;407;48.884;9.126;2023-04-15T06:06:39;12.30;99.90
843;DHT22;407;48.884;9.126;2023-04-15T06:09:05;12.90;99.90
843;DHT22;407;48.884;9.126;2023-04-15T06:11:31;13.10;99.90
843;DHT22;407;48.884;9.126;2023-04-15T06:13:56;12.70;99.90
843;DHT22;407;48.884;9.126;2023-04-15T06:16:22;12.20;99.90
843;DHT22;407;48.884;9.126;2023-04-15T06:18:48;12.00;99.90
843;DHT22;407;48.884;9.126;2023-04-15T06:21:14;12.10;99.90
843;DHT22;407;48.884;9.126;2023-04-15T06:23:40;12.10;99.90
843;DHT22;407;48.884;9.126;2023-04-15T06:26:06;12.60;99.90
843;DHT22;407;48.884;9.126;2023-04-15T06:28:31;13.30;99.90
843;DHT22;407;48.884;9.126;2023-04-15T06:30:57;13.40;99.90
843;DHT22;407;48.884;9.126;2023-04-15T06:33:23;14.10;99.90
843;DHT22;407;48.884;9.126;2023-04-15T06:35:48;15.20;99.90
843;DHT22;407;48.884;9.126;2023-04-15T06:38:14;15.50;99.90
843;DHT22;407;48.884;9.126;2023-04-15T06:40:40;15.20;99.90
843;DHT22;407;48.884;9.126;2023-04-15T06:43:06;15.60;99.90
843;DHT22;407;48.884;9.126;2023-04-15T06:45:32;16.50;99.90
843;DHT22;407;48.884;9.126;2023-04-15T06:47:58;16.40;99.90
843;DHT22;407;48.884;9.126;2023-04-15T06:50:23;16.10;99.90
843;DHT22;407;48.884;9.126;2023-04-15T06:52:49;15.90;99.90
843;DHT22;407;48.884;9.126;2023-04-15T06:55:15;16.00;99.90
843;DHT22;407;48.884;9.126;2023-04-15T06:57:40;15.50;99.90
843;DHT22;407;48.884;9.126;2023-04-15T07:00:06;15.40;99.90
843;DHT22;407;48.884;9.126;2023-04-15T07:02:32;15.30;99.90
843;DHT22;407;48.884;9.126;2023-04-15T07:04:58;15.70;99.90
843;DHT22;407;48.884;9.126;2023-04-15T07:07:24;15.90;99.90
843;DHT22;407;48.884;9.126;2023-04-15T07:09:50;16.10;99.90
843;DHT22;407;48.884;9.126;2023-04-15T07:12:17;16.40;99.90
843;DHT22;407;48.884;9.126;2023-04-15T07:14:42;17.00;99.90
843;DHT22;407;48.884;9.126;2023-04-15T07:17:08;17.60;99.90
843;DHT22;407;48.884;9.126;2023-04-15T07:19:34;17.50;99.90
843;DHT22;407;48.884;9.126;2023-04-15T07:22:00;17.80;99.90
843;DHT22;407;48.884;9.126;2023-04-15T07:24:26;17.20;99.90
843;DHT22;407;48.884;9.126;2023-04-15T07:26:54;17.00;99.90
843;DHT22;407;48.884;9.126;2023-04-15T07:29:22;16.00;99.90
843;DHT22;407;48.884;9.126;2023-04-15T07:31:47;14.90;99.90
843;DHT22;407;48.884;9.126;2023-04-15T07:34:13;14.30;99.90
843;DHT22;407;48.884;9.126;2023-04-15T07:36:39;13.70;99.90
843;DHT22;407;48.884;9.126;2023-04-15T07:39:05;13.10;99.90
843;DHT22;407;48.884;9.126;2023-04-15T07:41:30;12.90;99.90
843;DHT22;407;48.884;9.126;2023-04-15T07:43:56;12.80;99.90
843;DHT22;407;48.884;9.126;2023-04-15T07:46:22;12.80;99.90
843;DHT22;407;48.884;9.126;2023-04-15T07:48:49;13.50;99.90
843;DHT22;407;48.884;9.126;2023-04-15T07:51:15;14.60;99.90
843;DHT22;407;48.884;9.126;2023-04-15T07:53:42;15.90;99.90
843;DHT22;407;48.884;9.126;2023-04-15T07:56:09;17.20;99.90
843;DHT22;407;48.884;9.126;2023-04-15T07:58:34;18.30;99.90
843;DHT22;407;48.884;9.126;2023-04-15T08:01:00;19.00;99.90
843;DHT22;407;48.884;9.126;2023-04-15T08:03:26;19.10;99.90
843;DHT22;407;48.884;9.126;2023-04-15T08:05:52;18.60;99.90
843;DHT22;407;48.884;9.126;2023-04-15T08:08:18;18.60;99.90
843;DHT22;407;48.884;9.126;2023-04-15T08:10:44;18.70;99.90
843;DHT22;407;48.884;9.126;2023-04-15T08:13:11;19.10;99.90
843;DHT22;407;48.884;9.126;2023-04-15T08:15:37;19.50;99.90
843;DHT22;407;48.884;9.126;2023-04-15T08:18:03;19.30;99.90
843;DHT22;407;48.884;9.126;2023-04-15T08:20:28;19.80;99.90
843;DHT22;407;48.884;9.126;2023-04-15T08:22:54;20.30;1.00
843;DHT22;407;48.884;9.126;2023-04-15T08:25:20;21.00;99.90
843;DHT22;407;48.884;9.126;2023-04-15T08:27:46;21.10;99.90
843;DHT22;407;48.884;9.126;2023-04-15T08:30:12;19.80;99.90
843;DHT22;407;48.884;9.126;2023-04-15T08:32:38;19.10;99.90
843;DHT22;407;48.884;9.126;2023-04-15T08:35:04;19.30;99.90
843;DHT22;407;48.884;9.126;2023-04-15T08:37:30;19.00;99.90
843;DHT22;407;48.884;9.126;2023-04-15T08:39:55;19.00;99.90
843;DHT22;407;48.884;9.126;2023-04-15T08:42:28;19.80;99.90
843;DHT22;407;48.884;9.126;2023-04-15T08:44:58;20.10;99.90
843;DHT22;407;48.884;9.126;2023-04-15T08:47:25;20.80;99.90
843;DHT22;407;48.884;9.126;2023-04-15T08:49:54;21.10;99.90
843;DHT22;407;48.884;9.126;2023-04-15T08:52:26;20.50;99.90
843;DHT22;407;48.884;9.126;2023-04-15T08:57:25;22.30;99.90
843;DHT22;407;48.884;9.126;2023-04-15T08:59:52;22.80;99.90
843;DHT22;407;48.884;9.126;2023-04-15T09:02:18;23.00;99.90
843;DHT22;407;48.884;9.126;2023-04-15T09:04:44;23.10;99.90
843;DHT22;407;48.884;9.126;2023-04-15T09:07:09;22.60;99.90
843;DHT22;407;48.884;9.126;2023-04-15T09:09:35;22.00;99.90
843;DHT22;407;48.884;9.126;2023-04-15T09:12:04;22.70;99.90
843;DHT22;407;48.884;9.126;2023-04-15T09:14:30;23.40;99.90
843;DHT22;407;48.884;9.126;2023-04-15T09:17:01;23.30;99.90
843;DHT22;407;48.884;9.126;2023-04-15T09:19:27;22.90;99.90
843;DHT22;407;48.884;9.126;2023-04-15T09:21:55;22.90;99.90
843;DHT22;407;48.884;9.126;2023-04-15T09:24:24;23.00;99.90
843;DHT22;407;48.884;9.126;2023-04-15T09:26:52;22.50;99.90
843;DHT22;407;48.884;9.126;2023-04-15T09:29:19;21.40;99.90
843;DHT22;407;48.884;9.126;2023-04-15T09:31:45;21.10;99.90
843;DHT22;407;48.884;9.126;2023-04-15T09:34:11;20.50;99.90
843;DHT22;407;48.884;9.126;2023-04-15T09:39:12;19.80;99.90
843;DHT22;407;48.884;9.126;2023-04-15T09:41:38;20.40;99.90
843;DHT22;407;48.884;9.126;2023-04-15T09:44:03;20.80;99.90
843;DHT22;407;48.884;9.126;2023-04-15T09:46:43;20.00;99.90
843;DHT22;407;48.884;9.126;2023-04-15T09:49:10;18.90;99.90
843;DHT22;407;48.884;9.126;2023-04-15T09:51:36;18.60;99.90
843;DHT22;407;48.884;9.126;2023-04-15T09:54:02;18.80;99.90
843;DHT22;407;48.884;9.126;2023-04-15T09:56:36;18.90;99.90
843;DHT22;407;48.884;9.126;2023-04-15T09:59:08;18.80;99.90
843;DHT22;407;48.884;9.126;2023-04-15T10:01:34;19.10;99.90
843;DHT22;407;48.884;9.126;2023-04-15T10:04:04;19.20;99.90
843;DHT22;407;48.884;9.126;2023-04-15T10:06:30;19.40;99.90
843;DHT22;407;48.884;9.126;2023-04-15T10:08:57;19.00;99.90
843;DHT22;407;48.884;9.126;2023-04-15T10:11:23;18.80;99.90
843;DHT22;407;48.884;9.126;2023-04-15T10:13:50;18.30;99.90
843;DHT22;407;48.884;9.126;2023-04-15T10:16:19;18.20;99.90
843;DHT22;407;48.884;9.126;2023-04-15T10:18:53;18.20;99.90
843;DHT22;407;48.884;9.126;2023-04-15T10:21:20;18.90;99.90
843;DHT22;407;48.884;9.126;2023-04-15T10:23:47;19.60;99.90
843;DHT22;407;48.884;9.126;2023-04-15T10:26:13;20.50;99.90
843;DHT22;407;48.884;9.126;2023-04-15T10:28:43;21.10;99.90
843;DHT22;407;48.884;9.126;2023-04-15T10:31:11;22.00;99.90
843;DHT22;407;48.884;9.126;2023-04-15T10:33:38;22.20;99.90
843;DHT22;407;48.884;9.126;2023-04-15T10:36:05;20.60;99.90
843;DHT22;407;48.884;9.126;2023-04-15T10:38:37;19.90;99.90
843;DHT22;407;48.884;9.126;2023-04-15T10:46:13;18.90;99.90
843;DHT22;407;48.884;9.126;2023-04-15T10:48:46;18.30;99.90
843;DHT22;407;48.884;9.126;2023-04-15T10:51:13;18.30;99.90
843;DHT22;407;48.884;9.126;2023-04-15T10:53:41;18.50;99.90
843;DHT22;407;48.884;9.126;2023-04-15T10:56:09;18.40;99.90
843;DHT22;407;48.884;9.126;2023-04-15T10:58:41;17.80;99.90
843;DHT22;407;48.884;9.126;2023-04-15T11:01:07;18.30;99.90
843;DHT22;407;48.884;9.126;2023-04-15T11:03:41;18.20;99.90
843;DHT22;407;48.884;9.126;2023-04-15T11:06:08;18.50;99.90
843;DHT22;407;48.884;9.126;2023-04-15T11:11:18;17.90;99.90
843;DHT22;407;48.884;9.126;2023-04-15T11:13:48;18.10;99.90
843;DHT22;407;48.884;9.126;2023-04-15T11:16:14;18.20;99.90
843;DHT22;407;48.884;9.126;2023-04-15T11:18:40;18.50;99.90
843;DHT22;407;48.884;9.126;2023-04-15T11:21:07;18.50;99.90
843;DHT22;407;48.884;9.126;2023-04-15T11:23:35;17.60;99.90
843;DHT22;407;48.884;9.126;2023-04-15T11:26:03;17.60;99.90
843;DHT22;407;48.884;9.126;2023-04-15T11:28:31;17.20;99.90
843;DHT22;407;48.884;9.126;2023-04-15T11:30:57;16.90;99.90
843;DHT22;407;48.884;9.126;2023-04-15T11:33:23;16.60;99.90
843;DHT22;407;48.884;9.126;2023-04-15T11:35:53;16.70;99.90
843;DHT22;407;48.884;9.126;2023-04-15T11:38:19;16.70;99.90
843;DHT22;407;48.884;9.126;2023-04-15T11:40:45;17.00;99.90
843;DHT22;407;48.884;9.126;2023-04-15T11:43:19;17.70;99.90
843;DHT22;407;48.884;9.126;2023-04-15T11:45:55;18.00;99.90
843;DHT22;407;48.884;9.126;2023-04-15T11:48:26;17.90;99.90
843;DHT22;407;48.884;9.126;2023-04-15T11:50:53;17.80;99.90
843;DHT22;407;48.884;9.126;2023-04-15T11:53:19;17.60;99.90
843;DHT22;407;48.884;9.126;2023-04-15T11:55:46;17.60;99.90
843;DHT22;407;48.884;9.126;2023-04-15T11:58:17;16.70;99.90
843;DHT22;407;48.884;9.126;2023-04-15T12:00:54;17.20;99.90
843;DHT22;407;48.884;9.126;2023-04-15T12:03:26;17.30;99.90
843;DHT22;407;48.884;9.126;2023-04-15T12:06:22;17.00;99.90
843;DHT22;407;48.884;9.126;2023-04-15T12:11:46;16.90;99.90
843;DHT22;407;48.884;9.126;2023-04-15T12:16:52;14.00;99.90
843;DHT22;407;48.884;9.126;2023-04-15T12:21:51;12.40;99.90
843;DHT22;407;48.884;9.126;2023-04-15T12:24:20;11.70;1.00
843;DHT22;407;48.884;9.126;2023-04-15T12:26:51;11.40;1.00
843;DHT22;407;48.884;9.126;2023-04-15T12:29:18;11.30;99.90
843;DHT22;407;48.884;9.126;2023-04-15T12:34:14;11.00;99.90
843;DHT22;407;48.884;9.126;2023-04-15T12:36:40;11.40;99.90
843;DHT22;407;48.884;9.126;2023-04-15T12:39:05;11.90;1.00
843;DHT22;407;48.884;9.126;2023-04-15T12:41:32;12.40;1.00
843;DHT22;407;48.884;9.126;2023-04-15T12:43:58;12.60;1.00
843;DHT22;407;48.884;9.126;2023-04-15T12:46:24;12.90;1.00
843;DHT22;407;48.884;9.126;2023-04-15T12:48:50;13.00;99.90
843;DHT22;407;48.884;9.126;2023-04-15T12:51:17;12.90;99.90
843;DHT22;407;48.884;9.126;2023-04-15T12:53:43;12.80;99.90
843;DHT22;407;48.884;9.126;2023-04-15T12:56:09;12.80;99.90
843;DHT22;407;48.884;9.126;2023-04-15T12:58:35;12.80;99.90
843;DHT22;407;48.884;9.126;2023-04-15T13:01:00;13.00;99.90
843;DHT22;407;48.884;9.126;2023-04-15T13:03:26;13.20;99.90
843;DHT22;407;48.884;9.126;2023-04-15T13:05:52;13.50;99.90
843;DHT22;407;48.884;9.126;2023-04-15T13:08:18;14.00;99.90
843;DHT22;407;48.884;9.126;2023-04-15T13:10:43;14.10;99.90
843;DHT22;407;48.884;9.126;2023-04-15T13:13:09;13.90;99.90
843;DHT22;407;48.884;9.126;2023-04-15T13:15:35;13.60;99.90
843;DHT22;407;48.884;9.126;2023-04-15T13:18:00;13.60;99.90
843;DHT22;407;48.884;9.126;2023-04-15T13:20:26;13.70;99.90
843;DHT22;407;48.884;9.126;2023-04-15T13:22:52;13.50;99.90
843;DHT22;407;48.884;9.126;2023-04-15T13:25:18;13.50;99.90
843;DHT22;407;48.884;9.126;2023-04-15T13:27:44;13.60;99.90
843;DHT22;407;48.884;9.126;2023-04-15T13:30:10;13.70;99.90
843;DHT22;407;48.884;9.126;2023-04-15T13:32:36;13.90;99.90
843;DHT22;407;48.884;9.126;2023-04-15T13:35:01;14.00;99.90
843;DHT22;407;48.884;9.126;2023-04-15T13:37:28;14.10;99.90
843;DHT22;407;48.884;9.126;2023-04-15T13:39:55;14.00;99.90
843;DHT22;407;48.884;9.126;2023-04-15T13:42:22;14.10;99.90
843;DHT22;407;48.884;9.126;2023-04-15T13:44:49;14.30;99.90
843;DHT22;407;48.884;9.126;2023-04-15T13:47:18;14.30;99.90
843;DHT22;407;48.884;9.126;2023-04-15T13:49:44;14.40;99.90
843;DHT22;407;48.884;9.126;2023-04-15T13:52:11;14.20;99.90
843;DHT22;407;48.884;9.126;2023-04-15T13:54:37;14.20;99.90
843;DHT22;407;48.884;9.126;2023-04-15T13:57:04;13.90;99.90
843;DHT22;407;48.884;9.126;2023-04-15T13:59:31;13.90;99.90
843;DHT22;407;48.884;9.126;2023-04-15T14:01:57;13.70;99.90
843;DHT22;407;48.884;9.126;2023-04-15T14:04:23;13.70;99.90
843;DHT22;407;48.884;9.126;2023-04-15T14:06:48;13.30;99.90
843;DHT22;407;48.884;9.126;2023-04-15T14:09:14;13.20;99.90
843;DHT22;407;48.884;9.126;2023-04-15T14:11:40;13.30;99.90
843;DHT22;407;48.884;9.126;2023-04-15T14:14:05;13.40;99.90
843;DHT22;407;48.884;9.126;2023-04-15T14:16:32;13.50;99.90
843;DHT22;407;48.884;9.126;2023-04-15T14:18:58;13.50;99.90
843;DHT22;407;48.884;9.126;2023-04-15T14:21:24;13.70;99.90
843;DHT22;407;48.884;9.126;2023-04-15T14:23:52;13.40;99.90
843;DHT22;407;48.884;9.126;2023-04-15T14:26:18;12.90;99.90
843;DHT22;407;48.884;9.126;2023-04-15T14:28:43;12.80;99.90
843;DHT22;407;48.884;9.126;2023-04-15T14:31:09;12.70;99.90
843;DHT22;407;48.884;9.126;2023-04-15T14:33:35;12.70;99.90
843;DHT22;407;48.884;9.126;2023-04-15T14:36:02;12.70;99.90
843;DHT22;407;48.884;9.126;2023-04-15T14:38:28;12.70;99.90
843;DHT22;407;48.884;9.126;2023-04-15T14:40:54;12.40;99.90
843;DHT22;407;48.884;9.126;2023-04-15T14:43:20;12.30;99.90
843;DHT22;407;48.884;9.126;2023-04-15T14:45:46;12.30;99.90
843;DHT22;407;48.884;9.126;2023-04-15T14:48:12;12.40;99.90
843;DHT22;407;48.884;9.126;2023-04-15T14:50:38;12.30;99.90
843;DHT22;407;48.884;9.126;2023-04-15T14:53:04;12.30;99.90
843;DHT22;407;48.884;9.126;2023-04-15T14:55:29;12.30;99.90
843;DHT22;407;48.884;9.126;2023-04-15T14:57:55;12.40;99.90
843;DHT22;407;48.884;9.126;2023-04-15T15:00:22;12.00;99.90
843;DHT22;407;48.884;9.126;2023-04-15T15:02:47;12.00;99.90
843;DHT22;407;48.884;9.126;2023-04-15T15:05:13;12.00;99.90
843;DHT22;407;48.884;9.126;2023-04-15T15:07:39;12.10;99.90
843;DHT22;407;48.884;9.126;2023-04-15T15:10:05;12.00;99.90
843;DHT22;407;48.884;9.126;2023-04-15T15:12:32;12.10;99.90
843;DHT22;407;48.884;9.126;2023-04-15T15:14:57;12.20;99.90
843;DHT22;407;48.884;9.126;2023-04-15T15:17:23;12.10;99.90
843;DHT22;407;48.884;9.126;2023-04-15T15:19:49;12.20;99.90
843;DHT22;407;48.884;9.126;2023-04-15T15:22:15;12.10;99.90
843;DHT22;407;48.884;9.126;2023-04-15T15:24:41;12.10;99.90
843;DHT22;407;48.884;9.126;2023-04-15T15:27:06;12.20;99.90
843;DHT22;407;48.884;9.126;2023-04-15T15:29:32;12.30;99.90
843;DHT22;407;48.884;9.126;2023-04-15T15:31:58;12.30;99.90
843;DHT22;407;48.884;9.126;2023-04-15T15:34:24;12.20;99.90
843;DHT22;407;48.884;9.126;2023-04-15T15:36:49;12.30;99.90
843;DHT22;407;48.884;9.126;2023-04-15T15:39:15;12.50;99.90
843;DHT22;407;48.884;9.126;2023-04-15T15:41:40;12.30;99.90
843;DHT22;407;48.884;9.126;2023-04-15T15:44:06;12.40;99.90
843;DHT22;407;48.884;9.126;2023-04-15T15:46:32;12.50;99.90
843;DHT22;407;48.884;9.126;2023-04-15T15:48:57;12.40;99.90
843;DHT22;407;48.884;9.126;2023-04-15T15:51:23;12.40;99.90
843;DHT22;407;48.884;9.126;2023-04-15T15:53:48;12.10;99.90
843;DHT22;407;48.884;9.126;2023-04-15T15:56:14;12.00;99.90
843;DHT22;407;48.884;9.126;2023-04-15T15:58:41;11.80;99.90
843;DHT22;407;48.884;9.126;2023-04-15T16:01:08;11.50;99.90
843;DHT22;407;48.884;9.126;2023-04-15T16:03:33;11.40;99.90
843;DHT22;407;48.884;9.126;2023-04-15T16:05:59;11.10;99.90
843;DHT22;407;48.884;9.126;2023-04-15T16:08:25;11.10;1.00
843;DHT22;407;48.884;9.126;2023-04-15T16:10:50;11.10;1.00
843;DHT22;407;48.884;9.126;2023-04-15T16:13:16;10.90;99.90
843;DHT22;407;48.884;9.126;2023-04-15T16:15:42;10.90;99.90
843;DHT22;407;48.884;9.126;2023-04-15T16:18:07;11.00;99.90
843;DHT22;407;48.884;9.126;2023-04-15T16:20:33;11.00;99.90
843;DHT22;407;48.884;9.126;2023-04-15T16:22:59;10.70;1.00
843;DHT22;407;48.884;9.126;2023-04-15T16:25:28;10.70;61.50
843;DHT22;407;48.884;9.126;2023-04-15T16:27:54;10.80;99.90
843;DHT22;407;48.884;9.126;2023-04-15T16:30:20;10.80;99.90
843;DHT22;407;48.884;9.126;2023-04-15T16:32:45;10.90;99.90
843;DHT22;407;48.884;9.126;2023-04-15T16:35:11;11.10;99.90
843;DHT22;407;48.884;9.126;2023-04-15T16:37:36;11.20;2.10
843;DHT22;407;48.884;9.126;2023-04-15T16:40:02;11.10;99.90
843;DHT22;407;48.884;9.126;2023-04-15T16:42:28;10.90;1.00
843;DHT22;407;48.884;9.126;2023-04-15T16:44:54;10.80;99.90
843;DHT22;407;48.884;9.126;2023-04-15T16:47:21;10.90;99.90
843;DHT22;407;48.884;9.126;2023-04-15T16:49:47;10.80;84.60
843;DHT22;407;48.884;9.126;2023-04-15T16:52:12;10.80;99.90
843;DHT22;407;48.884;9.126;2023-04-15T16:54:38;10.90;1.00
843;DHT22;407;48.884;9.126;2023-04-15T16:57:06;10.70;99.90
843;DHT22;407;48.884;9.126;2023-04-15T16:59:31;10.60;99.90
843;DHT22;407;48.884;9.126;2023-04-15T17:01:57;10.60;1.00